createdAt,value
2019-02-21T00:01:45.750Z,101007.62
2019-02-21T00:05:52.685Z,101013.86
2019-02-21T00:09:59.521Z,101010.73
2019-02-21T00:14:07.650Z,101009.98
2019-02-21T00:18:14.503Z,101020.03
2019-02-21T00:22:21.314Z,101016.15
2019-02-21T00:26:28.371Z,101012.91
2019-02-21T00:30:35.663Z,101017.70
2019-02-21T00:34:42.511Z,101018.94
2019-02-21T00:38:49.345Z,101020.92
2019-02-21T00:42:56.144Z,101018.96
2019-02-21T00:47:02.990Z,101020.43
2019-02-21T00:51:09.873Z,101020.61
2019-02-21T00:55:16.881Z,101022.42
2019-02-21T00:59:23.776Z,101021.98
2019-02-21T01:03:30.576Z,101027.44
2019-02-21T01:07:37.609Z,101017.27
2019-02-21T01:11:44.489Z,101015.55
2019-02-21T01:15:51.303Z,101017.66
2019-02-21T01:19:58.321Z,101018.15
2019-02-21T01:24:05.476Z,101024.02
2019-02-21T01:28:12.427Z,101033.94
2019-02-21T01:32:19.228Z,101029.73
2019-02-21T01:36:26.177Z,101034.99
2019-02-21T01:40:33.228Z,101034.77
2019-02-21T01:44:40.170Z,101032.78
2019-02-21T01:48:47.113Z,101031.89
2019-02-21T01:52:55.047Z,101029.89
2019-02-21T01:57:02.090Z,101033.64
2019-02-21T02:01:09.220Z,101029.78
2019-02-21T02:05:16.309Z,101032.41
2019-02-21T02:09:23.229Z,101033.08
2019-02-21T02:13:30.038Z,101028.65
2019-02-21T02:17:36.864Z,101029.98
2019-02-21T02:21:43.802Z,101039.66
2019-02-21T02:25:50.713Z,101040.13
2019-02-21T02:29:57.655Z,101037.42
2019-02-21T02:34:05.614Z,101037.34
2019-02-21T02:38:12.639Z,101035.06
2019-02-21T02:42:19.503Z,101042.69
2019-02-21T02:46:26.357Z,101044.42
2019-02-21T02:50:33.339Z,101054.83
2019-02-21T02:54:40.209Z,101048.76
2019-02-21T02:58:47.191Z,101039.23
2019-02-21T03:02:54.130Z,101038.25
2019-02-21T03:07:01.258Z,101047.03
2019-02-21T03:11:10.475Z,101045.61
2019-02-21T03:15:17.600Z,101052.12
2019-02-21T03:19:24.863Z,101054.48
2019-02-21T03:23:31.729Z,101060.28
2019-02-21T03:27:38.808Z,101057.40
2019-02-21T03:31:54.282Z,101058.66
2019-02-21T03:35:54.499Z,101066.90
2019-02-21T03:40:02.677Z,101062.14
2019-02-21T03:44:10.598Z,101060.36
2019-02-21T03:48:17.639Z,101063.34
2019-02-21T03:52:24.518Z,101068.59
2019-02-21T03:56:31.442Z,101069.64
2019-02-21T04:00:38.746Z,101069.17
2019-02-21T04:04:45.621Z,101069.78
2019-02-21T04:08:52.545Z,101070.27
2019-02-21T04:12:59.470Z,101077.45
2019-02-21T04:17:06.371Z,101078.80
2019-02-21T04:21:13.328Z,101068.66
2019-02-21T04:25:20.221Z,101075.34
2019-02-21T04:29:27.072Z,101072.63
2019-02-21T04:33:35.195Z,101054.20
2019-02-21T04:37:42.185Z,101058.90
2019-02-21T04:41:49.688Z,101060.66
2019-02-21T04:45:56.658Z,101051.83
2019-02-21T04:50:03.573Z,101063.16
2019-02-21T04:54:10.432Z,101053.92
2019-02-21T04:58:17.350Z,101059.17
2019-02-21T05:02:29.431Z,101062.53
2019-02-21T05:06:34.989Z,101058.26
2019-02-21T05:10:43.145Z,101057.83
2019-02-21T05:14:50.017Z,101052.72
2019-02-21T05:18:56.822Z,101051.01
2019-02-21T05:23:03.733Z,101063.50
2019-02-21T05:27:15.410Z,101071.55
2019-02-21T05:31:47.066Z,101074.13
2019-02-21T05:36:05.282Z,101067.56
2019-02-21T05:40:45.421Z,101065.22
2019-02-21T05:45:29.565Z,101066.05
2019-02-21T05:49:42.140Z,101069.78
2019-02-21T05:54:08.027Z,101065.70
2019-02-21T05:58:31.811Z,101064.88
2019-02-21T06:02:56.057Z,101063.20
2019-02-21T06:07:29.049Z,101057.01
2019-02-21T06:11:54.838Z,101053.07
2019-02-21T06:16:21.942Z,101069.66
2019-02-21T06:20:46.649Z,101074.13
2019-02-21T06:25:18.306Z,101079.72
2019-02-21T06:29:40.297Z,101078.06
2019-02-21T06:33:49.383Z,101078.96
2019-02-21T06:37:55.852Z,101083.31
2019-02-21T06:42:02.801Z,101078.22
2019-02-21T06:46:09.714Z,101086.30
2019-02-21T06:50:26.432Z,101093.69
2019-02-21T06:54:25.287Z,101097.43
2019-02-21T06:58:32.329Z,101104.75
2019-02-21T07:02:41.159Z,101105.09
2019-02-21T07:06:48.222Z,101111.52
2019-02-21T07:11:05.958Z,101101.50
2019-02-21T07:15:07.473Z,101104.42
2019-02-21T07:19:14.641Z,101107.59
2019-02-21T07:23:22.256Z,101105.52
2019-02-21T07:27:31.290Z,101111.94
2019-02-21T07:31:40.663Z,101108.53
2019-02-21T07:35:47.914Z,101115.88
2019-02-21T07:39:54.923Z,101117.72
2019-02-21T07:44:11.672Z,101123.20
2019-02-21T07:48:10.554Z,101120.41
2019-02-21T07:52:17.709Z,101122.16
2019-02-21T07:56:24.536Z,101127.12
2019-02-21T08:00:35.710Z,101134.71
2019-02-21T08:04:49.791Z,101152.86
2019-02-21T08:08:56.855Z,101157.80
2019-02-21T08:13:03.735Z,101173.01
2019-02-21T08:17:10.629Z,101173.61
2019-02-21T08:21:17.549Z,101176.42
2019-02-21T08:25:24.601Z,101180.96
2019-02-21T08:29:32.898Z,101187.39
2019-02-21T08:33:58.559Z,101189.60
2019-02-21T08:38:03.127Z,101186.90
2019-02-21T08:42:10.160Z,101185.17
2019-02-21T08:46:18.299Z,101185.20
2019-02-21T08:50:25.584Z,101189.41
2019-02-21T08:54:33.715Z,101191.55
2019-02-21T08:58:40.902Z,101193.37
2019-02-21T09:02:47.986Z,101188.55
2019-02-21T09:06:55.237Z,101197.34
2019-02-21T09:11:04.014Z,101204.91
2019-02-21T09:15:14.871Z,101206.72
2019-02-21T09:19:23.402Z,101198.91
2019-02-21T09:23:30.437Z,101197.69
2019-02-21T09:27:37.357Z,101200.83
2019-02-21T09:31:44.432Z,101201.58
2019-02-21T09:35:51.270Z,101196.58
2019-02-21T09:39:58.351Z,101200.25
2019-02-21T09:44:05.302Z,101202.93
2019-02-21T09:48:12.280Z,101210.39
2019-02-21T09:52:20.145Z,101211.25
2019-02-21T09:56:30.334Z,101215.16
2019-02-21T10:00:36.146Z,101210.73
2019-02-21T10:04:43.142Z,101204.58
2019-02-21T10:08:50.049Z,101210.50
2019-02-21T10:12:56.927Z,101212.31
2019-02-21T10:17:03.889Z,101210.83
2019-02-21T10:21:10.990Z,101208.54
2019-02-21T10:25:24.318Z,101208.42
2019-02-21T10:29:31.194Z,101214.89
2019-02-21T10:33:46.512Z,101214.89
2019-02-21T10:37:46.875Z,101218.98
2019-02-21T10:41:55.603Z,101227.75
2019-02-21T10:46:02.670Z,101223.81
2019-02-21T10:50:14.300Z,101219.39
2019-02-21T10:54:21.235Z,101222.41
2019-02-21T10:58:29.380Z,101230.85
2019-02-21T11:02:36.273Z,101230.37
2019-02-21T11:06:43.212Z,101226.37
2019-02-21T11:10:50.286Z,101226.06
2019-02-21T11:14:57.143Z,101231.01
2019-02-21T11:19:04.061Z,101225.70
2019-02-21T11:23:12.720Z,101220.08
2019-02-21T11:27:19.825Z,101224.02
2019-02-21T11:31:27.921Z,101213.42
2019-02-21T11:35:35.016Z,101212.23
2019-02-21T11:39:42.039Z,101207.30
2019-02-21T11:43:49.023Z,101200.95
2019-02-21T11:47:55.975Z,101205.73
2019-02-21T11:52:09.825Z,101206.45
2019-02-21T11:56:11.905Z,101204.11
2019-02-21T12:00:25.383Z,101200.72
2019-02-21T12:04:32.384Z,101197.27
2019-02-21T12:08:39.522Z,101185.77
2019-02-21T12:12:46.653Z,101171.97
2019-02-21T12:16:53.878Z,101183.06
2019-02-21T12:21:00.911Z,101179.70
2019-02-21T12:25:10.101Z,101160.70
2019-02-21T12:29:18.054Z,101148.20
2019-02-21T12:33:25.290Z,101143.67
2019-02-21T12:37:32.615Z,101133.84
2019-02-21T12:41:39.560Z,101138.39
2019-02-21T12:45:49.322Z,101145.91
2019-02-21T12:49:56.317Z,101150.16
2019-02-21T12:54:04.652Z,101154.31
2019-02-21T12:58:12.490Z,101147.69
2019-02-21T13:02:19.339Z,101149.99
2019-02-21T13:06:29.012Z,101156.09
2019-02-21T13:10:36.027Z,101154.41
2019-02-21T13:14:43.015Z,101159.48
2019-02-21T13:18:49.999Z,101156.67
2019-02-21T13:22:56.829Z,101160.47
2019-02-21T13:27:03.819Z,101155.80
2019-02-21T13:31:10.756Z,101153.59
2019-02-21T13:35:20.149Z,101148.70
2019-02-21T13:39:26.999Z,101151.20
2019-02-21T13:43:33.928Z,101144.39
2019-02-21T13:47:41.012Z,101147.21
2019-02-21T13:51:48.032Z,101143.17
2019-02-21T13:55:55.300Z,101141.11
2019-02-21T14:00:02.554Z,101133.77
2019-02-21T14:04:11.588Z,101125.48
2019-02-21T14:08:18.805Z,101122.13
2019-02-21T14:12:26.646Z,101118.17
2019-02-21T14:16:45.722Z,101124.61
2019-02-21T14:20:45.597Z,101114.98
2019-02-21T14:24:51.590Z,101104.79
2019-02-21T14:29:00.180Z,101108.56
2019-02-21T14:33:20.325Z,101113.78
2019-02-21T14:37:31.912Z,101112.56
2019-02-21T14:41:45.617Z,101115.36
2019-02-21T14:45:52.817Z,101109.41
2019-02-21T14:50:00.052Z,101105.91
2019-02-21T14:54:07.322Z,101105.91
2019-02-21T14:58:14.313Z,101105.65
2019-02-21T15:02:22.266Z,101108.66
2019-02-21T15:06:29.673Z,101099.76
2019-02-21T15:10:36.861Z,101102.31
2019-02-21T15:14:43.745Z,101095.66
2019-02-21T15:18:50.809Z,101096.41
2019-02-21T15:22:57.773Z,101100.83
2019-02-21T15:27:08.389Z,101106.84
2019-02-21T15:31:13.398Z,101107.87
2019-02-21T15:35:23.563Z,101108.19
2019-02-21T15:39:30.530Z,101119.51
2019-02-21T15:43:37.593Z,101118.70
2019-02-21T15:47:44.571Z,101117.28
2019-02-21T15:51:51.584Z,101116.21
2019-02-21T15:55:58.421Z,101113.17
2019-02-21T16:00:07.239Z,101113.63
2019-02-21T16:04:14.278Z,101120.66
2019-02-21T16:08:21.301Z,101116.56
2019-02-21T16:12:28.832Z,101122.34
2019-02-21T16:16:35.901Z,101124.58
2019-02-21T16:20:48.477Z,101119.03
2019-02-21T16:24:55.938Z,101122.94
2019-02-21T16:29:02.987Z,101127.91
2019-02-21T16:33:09.909Z,101127.59
2019-02-21T16:37:16.905Z,101136.34
2019-02-21T16:41:23.786Z,101138.81
2019-02-21T17:01:26.482Z,101151.50
2019-02-21T17:05:33.602Z,101150.00
2019-02-21T17:09:40.637Z,101156.87
2019-02-21T17:13:47.644Z,101166.19
2019-02-21T17:17:54.597Z,101172.61
2019-02-21T17:22:06.719Z,101179.86
2019-02-21T17:26:13.769Z,101185.48
2019-02-21T17:30:21.001Z,101193.96
2019-02-21T17:34:28.140Z,101192.63
2019-02-21T17:38:37.753Z,101187.97
2019-02-21T17:42:44.973Z,101199.75
2019-02-21T17:46:52.019Z,101194.50
2019-02-21T17:51:00.307Z,101189.66
2019-02-21T17:55:08.130Z,101199.69
2019-02-21T17:59:15.068Z,101205.38
2019-02-21T18:03:23.274Z,101204.18
2019-02-21T18:07:36.383Z,101197.47
2019-02-21T18:11:39.148Z,101203.61
2019-02-21T18:15:46.374Z,101205.88
2019-02-21T18:19:53.875Z,101211.92
2019-02-21T18:24:00.960Z,101213.67
2019-02-21T18:28:08.513Z,101209.77
2019-02-21T18:32:15.577Z,101215.08
2019-02-21T18:36:22.567Z,101214.68
2019-02-21T18:40:29.697Z,101221.31
2019-02-21T18:44:36.575Z,101210.72
2019-02-21T18:48:43.606Z,101222.88
2019-02-21T18:52:50.555Z,101220.11
2019-02-21T18:56:57.608Z,101225.74
2019-02-21T19:01:04.637Z,101225.80
2019-02-21T19:05:11.780Z,101219.61
2019-02-21T19:09:18.990Z,101215.33
2019-02-21T19:13:25.913Z,101214.30
2019-02-21T19:17:32.820Z,101213.98
2019-02-21T19:21:40.002Z,101209.20
2019-02-21T19:25:47.182Z,101212.52
2019-02-21T19:29:54.143Z,101218.13
2019-02-21T19:34:01.093Z,101220.41
2019-02-21T19:38:10.794Z,101231.03
2019-02-21T19:42:17.160Z,101232.17
2019-02-21T19:46:26.249Z,101234.00
2019-02-21T19:50:33.557Z,101231.34
2019-02-21T19:54:40.502Z,101229.05
2019-02-21T19:58:47.508Z,101232.84
2019-02-21T20:02:54.902Z,101234.36
2019-02-21T20:07:02.095Z,101246.86
2019-02-21T20:11:09.241Z,101241.31
2019-02-21T20:15:15.737Z,101246.05
2019-02-21T20:19:23.743Z,101254.19
2019-02-21T20:23:30.558Z,101255.81
2019-02-21T20:27:37.499Z,101267.66
2019-02-21T20:31:44.556Z,101277.27
2019-02-21T20:35:51.863Z,101279.30
2019-02-21T20:39:58.947Z,101277.37
2019-02-21T20:44:06.121Z,101278.48
2019-02-21T20:48:13.142Z,101284.52
2019-02-21T20:52:20.213Z,101291.27
2019-02-21T20:56:27.213Z,101291.95
2019-02-21T21:00:34.226Z,101291.75
2019-02-21T21:04:41.321Z,101288.62
2019-02-21T21:08:48.255Z,101292.27
2019-02-21T21:12:55.334Z,101290.94
2019-02-21T21:17:02.309Z,101301.73
2019-02-21T21:21:09.262Z,101312.69
2019-02-21T21:25:16.524Z,101307.34
2019-02-21T21:29:23.399Z,101319.86
2019-02-21T21:33:30.243Z,101326.44
2019-02-21T21:37:37.254Z,101328.89
2019-02-21T21:41:44.384Z,101320.45
2019-02-21T21:45:51.706Z,101322.45
2019-02-21T21:49:59.019Z,101325.42
2019-02-21T21:54:05.966Z,101333.39
2019-02-21T21:58:13.114Z,101336.50
2019-02-21T22:02:20.019Z,101336.88
2019-02-21T22:06:27.044Z,101349.95
2019-02-21T22:10:33.968Z,101349.63
2019-02-21T22:14:40.795Z,101357.33
2019-02-21T22:18:47.757Z,101357.98
2019-02-21T22:22:55.555Z,101355.64
2019-02-21T22:27:02.645Z,101357.28
2019-02-21T22:31:09.538Z,101359.48
2019-02-21T22:35:16.430Z,101356.47
2019-02-21T22:39:23.291Z,101351.02
2019-02-21T22:43:30.211Z,101346.22
2019-02-21T22:47:37.030Z,101345.89
2019-02-21T22:51:43.880Z,101350.02
2019-02-21T22:55:50.755Z,101336.42
2019-02-21T22:59:57.861Z,101337.06
2019-02-21T23:05:35.626Z,101328.09
2019-02-21T23:09:42.509Z,101325.50
2019-02-21T23:13:49.907Z,101332.95
2019-02-21T23:17:56.785Z,101347.05
2019-02-21T23:22:03.555Z,101342.42
2019-02-21T23:26:11.493Z,101343.58
2019-02-21T23:30:18.350Z,101348.06
2019-02-21T23:34:35.117Z,101349.75
2019-02-21T23:38:41.992Z,101357.34
2019-02-21T23:42:48.852Z,101349.44
2019-02-21T23:46:55.977Z,101351.90
2019-02-21T23:51:03.039Z,101344.63
2019-02-21T23:55:11.052Z,101351.91
2019-02-21T23:59:17.844Z,101334.34
